createdAt,value
2024-02-24T00:00:17.120Z,98733.75
2024-02-24T00:03:21.373Z,98735.91
2024-02-24T00:06:25.117Z,98729.44
2024-02-24T00:09:28.837Z,98741.06
2024-02-24T00:12:31.136Z,98735.09
2024-02-24T00:15:33.835Z,98729.81
2024-02-24T00:18:36.361Z,98720.75
2024-02-24T00:21:39.006Z,98717.03
2024-02-24T00:24:41.413Z,98727.25
2024-02-24T00:27:44.100Z,98729.66
2024-02-24T00:30:46.653Z,98721.13
2024-02-24T00:33:49.424Z,98731.69
2024-02-24T00:36:51.763Z,98723.47
2024-02-24T00:39:54.473Z,98725.53
2024-02-24T00:42:56.833Z,98725.75
2024-02-24T00:46:00.151Z,98721.31
2024-02-24T00:49:02.768Z,98729.59
2024-02-24T00:52:05.685Z,98725.28
2024-02-24T00:55:08.713Z,98723.19
2024-02-24T00:58:12.217Z,98719.31
2024-02-24T01:01:14.683Z,98717.25
2024-02-24T01:04:21.384Z,98713.72
2024-02-24T01:07:25.716Z,98721.81
2024-02-24T01:10:30.015Z,98708.91
2024-02-24T01:13:32.497Z,98713.00
2024-02-24T01:16:35.316Z,98713.50
2024-02-24T01:19:38.184Z,98699.34
2024-02-24T01:22:40.971Z,98703.47
2024-02-24T01:25:45.424Z,98706.25
2024-02-24T01:28:49.354Z,98706.84
2024-02-24T01:31:51.668Z,98709.09
2024-02-24T01:34:54.458Z,98707.13
2024-02-24T01:37:56.951Z,98707.63
2024-02-24T01:40:59.561Z,98700.53
2024-02-24T01:44:01.961Z,98696.38
2024-02-24T01:47:04.784Z,98700.00
2024-02-24T01:50:08.323Z,98694.06
2024-02-24T01:53:11.585Z,98695.72
2024-02-24T01:56:14.763Z,98695.25
2024-02-24T01:59:18.476Z,98696.75
2024-02-24T02:02:20.977Z,98692.28
2024-02-24T02:05:23.787Z,98700.88
2024-02-24T02:08:26.258Z,98695.56
2024-02-24T02:11:29.081Z,98700.00
2024-02-24T02:14:31.585Z,98706.28
2024-02-24T02:17:34.576Z,98699.19
2024-02-24T02:20:37.265Z,98709.38
2024-02-24T02:23:40.009Z,98714.88
2024-02-24T02:26:42.498Z,98716.22
2024-02-24T02:29:45.552Z,98714.72
2024-02-24T02:32:48.074Z,98712.59
2024-02-24T02:35:51.746Z,98724.66
2024-02-24T02:38:54.118Z,98716.53
2024-02-24T02:41:56.840Z,98723.31
2024-02-24T02:44:59.212Z,98719.16
2024-02-24T02:48:02.083Z,98730.31
2024-02-24T02:51:04.898Z,98734.44
2024-02-24T02:54:07.564Z,98730.91
2024-02-24T02:57:09.958Z,98732.47
2024-02-24T03:00:13.241Z,98741.00
2024-02-24T03:03:15.877Z,98745.94
2024-02-24T03:06:19.648Z,98744.88
2024-02-24T03:09:22.053Z,98758.63
2024-02-24T03:12:24.925Z,98764.03
2024-02-24T03:15:27.403Z,98772.72
2024-02-24T03:18:30.139Z,98780.97
2024-02-24T03:21:33.671Z,98789.97
2024-02-24T03:24:36.457Z,98797.56
2024-02-24T03:27:39.070Z,98795.59
2024-02-24T03:30:41.806Z,98798.31
2024-02-24T03:33:44.628Z,98814.75
2024-02-24T03:36:47.351Z,98822.38
2024-02-24T03:39:49.816Z,98813.72
2024-02-24T03:42:52.795Z,98825.31
2024-02-24T03:45:55.133Z,98829.56
2024-02-24T03:48:57.762Z,98830.91
2024-02-24T03:52:00.125Z,98829.06
2024-02-24T03:55:02.772Z,98834.13
2024-02-24T03:58:05.094Z,98836.50
2024-02-24T04:01:07.704Z,98824.78
2024-02-24T04:04:10.419Z,98830.97
2024-02-24T04:07:13.591Z,98830.41
2024-02-24T04:10:16.326Z,98828.66
2024-02-24T04:13:21.228Z,98832.66
2024-02-24T04:16:24.196Z,98825.88
2024-02-24T04:19:26.658Z,98834.19
2024-02-24T04:22:29.443Z,98864.81
2024-02-24T04:25:31.735Z,98868.81
2024-02-24T04:28:34.404Z,98876.19
2024-02-24T04:31:36.875Z,98858.59
2024-02-24T04:34:39.583Z,98860.66
2024-02-24T04:37:42.226Z,98869.56
2024-02-24T04:40:44.847Z,98866.41
2024-02-24T04:43:47.192Z,98868.22
2024-02-24T04:46:50.185Z,98852.81
2024-02-24T04:49:53.120Z,98850.84
2024-02-24T04:52:56.286Z,98861.25
2024-02-24T04:55:58.583Z,98859.44
2024-02-24T04:59:01.345Z,98866.09
2024-02-24T05:02:03.832Z,98870.41
2024-02-24T05:05:07.063Z,98874.53
2024-02-24T05:08:09.958Z,98879.25
2024-02-24T05:11:12.653Z,98880.00
2024-02-24T05:14:18.528Z,98887.59
2024-02-24T05:17:23.750Z,98875.28
2024-02-24T05:20:26.207Z,98877.66
2024-02-24T05:23:29.333Z,98879.59
2024-02-24T05:26:31.728Z,98874.88
2024-02-24T05:29:35.120Z,98867.13
2024-02-24T05:32:37.598Z,98874.34
2024-02-24T05:35:40.432Z,98886.66
2024-02-24T05:38:43.467Z,98905.41
2024-02-24T05:41:47.999Z,98913.00
2024-02-24T05:44:50.892Z,98908.44
2024-02-24T05:47:53.697Z,98914.41
2024-02-24T05:50:56.382Z,98912.63
2024-02-24T05:53:59.901Z,98904.72
2024-02-24T05:57:05.789Z,98912.63
2024-02-24T06:00:12.289Z,98921.38
2024-02-24T06:03:15.301Z,98942.97
2024-02-24T06:06:17.943Z,98937.59
2024-02-24T06:09:20.672Z,98941.16
2024-02-24T06:12:25.671Z,98948.13
2024-02-24T06:15:29.024Z,98950.59
2024-02-24T06:18:31.830Z,98972.09
2024-02-24T06:21:34.843Z,98989.00
2024-02-24T06:24:37.221Z,99002.31
2024-02-24T06:27:40.249Z,98992.47
2024-02-24T06:30:42.952Z,98994.53
2024-02-24T06:33:45.772Z,98995.22
2024-02-24T06:36:48.296Z,98988.31
2024-02-24T06:39:51.280Z,98992.47
2024-02-24T06:42:53.705Z,98998.00
2024-02-24T06:45:56.353Z,99002.75
2024-02-24T06:48:59.363Z,99008.44
2024-02-24T06:52:04.574Z,99007.72
2024-02-24T06:55:07.350Z,99011.06
2024-02-24T06:58:10.078Z,99020.66
2024-02-24T07:01:12.625Z,99032.28
2024-02-24T07:04:18.219Z,99047.13
2024-02-24T07:07:20.930Z,99052.12
2024-02-24T07:10:23.567Z,99047.69
2024-02-24T07:13:25.891Z,99043.09
2024-02-24T07:16:29.064Z,99050.59
2024-02-24T07:19:31.438Z,99050.72
2024-02-24T07:22:34.012Z,99059.31
2024-02-24T07:25:36.464Z,99055.28
2024-02-24T07:28:41.226Z,99061.06
2024-02-24T07:31:43.754Z,99060.88
2024-02-24T07:34:46.823Z,99074.66
2024-02-24T07:37:50.245Z,99080.03
2024-02-24T07:40:53.144Z,99095.34
2024-02-24T07:43:55.623Z,99100.31
2024-02-24T07:46:58.212Z,99101.41
2024-02-24T07:50:00.702Z,99104.31
2024-02-24T07:53:04.803Z,99103.72
2024-02-24T07:56:07.376Z,99111.22
2024-02-24T07:59:10.228Z,99109.37
2024-02-24T08:02:12.663Z,99120.72
2024-02-24T08:05:15.420Z,99120.97
2024-02-24T08:08:17.885Z,99133.84
2024-02-24T08:11:20.714Z,99127.56
2024-02-24T08:14:23.176Z,99140.22
2024-02-24T08:17:25.930Z,99136.56
2024-02-24T08:20:28.712Z,99143.16
2024-02-24T08:23:31.343Z,99137.22
2024-02-24T08:26:36.159Z,99140.16
2024-02-24T08:29:38.982Z,99156.97
2024-02-24T08:32:41.358Z,99164.41
2024-02-24T08:35:44.810Z,99162.25
2024-02-24T08:38:47.446Z,99163.69
2024-02-24T08:41:50.255Z,99171.69
2024-02-24T08:44:52.773Z,99178.34
2024-02-24T08:47:55.511Z,99186.47
2024-02-24T08:50:58.049Z,99177.66
2024-02-24T08:54:00.824Z,99170.53
2024-02-24T08:57:03.530Z,99176.16
2024-02-24T09:00:06.960Z,99178.16
2024-02-24T09:03:09.496Z,99185.78
2024-02-24T09:06:12.531Z,99168.53
2024-02-24T09:09:17.189Z,99181.72
2024-02-24T09:12:19.918Z,99188.75
2024-02-24T09:15:22.279Z,99202.75
2024-02-24T09:18:26.947Z,99194.56
2024-02-24T09:21:29.766Z,99204.66
2024-02-24T09:24:32.428Z,99206.91
2024-02-24T09:27:34.854Z,99206.22
2024-02-24T09:30:38.003Z,99217.50
2024-02-24T09:33:40.557Z,99221.78
2024-02-24T09:36:43.796Z,99232.22
2024-02-24T09:39:46.499Z,99240.81
2024-02-24T09:42:49.222Z,99237.47
2024-02-24T09:45:52.568Z,99234.81
2024-02-24T09:48:56.241Z,99242.00
2024-02-24T09:51:59.879Z,99254.53
2024-02-24T09:55:04.470Z,99258.81
2024-02-24T09:58:12.273Z,99267.56
2024-02-24T10:01:15.021Z,99279.84
2024-02-24T10:04:19.005Z,99285.84
2024-02-24T10:09:05.973Z,99278.00
2024-02-24T10:12:09.380Z,99291.81
2024-02-24T10:15:15.452Z,99289.00
2024-02-24T10:18:21.525Z,99287.34
2024-02-24T10:21:24.589Z,99280.91
2024-02-24T10:24:27.300Z,99287.69
2024-02-24T10:27:30.921Z,99289.94
2024-02-24T10:30:33.603Z,99283.91
2024-02-24T10:33:38.628Z,99277.50
2024-02-24T10:36:42.725Z,99273.47
2024-02-24T10:39:47.003Z,99269.47
2024-02-24T10:42:50.750Z,99273.41
2024-02-24T10:45:53.021Z,99279.69
2024-02-24T10:48:56.016Z,99281.97
2024-02-24T10:51:59.096Z,99287.50
2024-02-24T10:55:03.528Z,99278.78
2024-02-24T10:58:06.556Z,99291.87
2024-02-24T11:01:11.070Z,99293.66
2024-02-24T11:04:16.784Z,99293.84
2024-02-24T11:07:24.129Z,99298.00
2024-02-24T11:10:33.597Z,99302.50
2024-02-24T11:13:36.576Z,99303.97
2024-02-24T11:16:40.290Z,99300.06
2024-02-24T11:19:49.417Z,99297.59
2024-02-24T11:23:35.003Z,99297.66
2024-02-24T11:26:38.896Z,99301.16
2024-02-24T11:29:41.606Z,99300.94
2024-02-24T11:32:47.304Z,99298.09
2024-02-24T11:35:54.990Z,99298.03
2024-02-24T11:38:59.041Z,99305.16
2024-02-24T11:42:05.825Z,99298.47
2024-02-24T11:45:09.638Z,99294.44
2024-02-24T11:48:12.191Z,99299.37
2024-02-24T11:51:15.176Z,99311.81
2024-02-24T11:54:18.192Z,99312.69
2024-02-24T11:57:21.446Z,99314.41
2024-02-24T12:00:24.082Z,99311.34
2024-02-24T12:03:26.679Z,99312.41
2024-02-24T12:06:32.011Z,99325.50
2024-02-24T12:09:34.983Z,99324.09
2024-02-24T12:12:38.004Z,99320.16
2024-02-24T12:15:42.457Z,99322.41
2024-02-24T12:18:47.134Z,99323.97
2024-02-24T12:21:50.286Z,99315.53
2024-02-24T12:24:52.679Z,99318.94
2024-02-24T12:27:56.827Z,99312.75
2024-02-24T12:30:59.244Z,99328.03
2024-02-24T12:34:02.230Z,99325.84
2024-02-24T12:37:04.892Z,99322.81
2024-02-24T12:40:08.747Z,99333.13
2024-02-24T12:43:12.230Z,99326.41
2024-02-24T12:46:15.729Z,99331.84
2024-02-24T12:49:18.336Z,99333.16
2024-02-24T12:52:21.414Z,99335.44
2024-02-24T12:55:23.908Z,99333.91
2024-02-24T12:58:27.275Z,99334.75
2024-02-24T13:01:29.692Z,99340.94
2024-02-24T13:04:32.811Z,99340.03
2024-02-24T13:07:35.414Z,99348.16
2024-02-24T13:10:38.194Z,99341.41
2024-02-24T13:13:40.688Z,99337.69
2024-02-24T13:16:43.350Z,99339.03
2024-02-24T13:19:45.679Z,99345.34
2024-02-24T13:22:48.832Z,99347.06
2024-02-24T13:25:51.224Z,99350.75
2024-02-24T13:28:55.958Z,99356.62
2024-02-24T13:31:58.930Z,99355.22
2024-02-24T13:35:01.719Z,99355.38
2024-02-24T13:38:04.277Z,99353.31
2024-02-24T13:41:07.081Z,99346.25
2024-02-24T13:44:13.716Z,99357.25
2024-02-24T13:47:17.367Z,99353.06
2024-02-24T13:50:21.266Z,99356.72
2024-02-24T13:53:24.039Z,99357.47
2024-02-24T13:56:26.967Z,99355.44
2024-02-24T13:59:29.656Z,99357.31
2024-02-24T14:02:32.081Z,99351.31
2024-02-24T14:05:35.085Z,99362.44
2024-02-24T14:08:37.954Z,99364.19
2024-02-24T14:11:41.037Z,99368.69
2024-02-24T14:14:43.668Z,99366.78
2024-02-24T14:17:46.639Z,99371.41
2024-02-24T14:20:49.376Z,99368.28
2024-02-24T14:23:52.945Z,99366.38
2024-02-24T14:26:56.040Z,99369.41
2024-02-24T14:30:00.667Z,99364.12
2024-02-24T14:33:03.205Z,99372.59
2024-02-24T14:36:06.231Z,99368.75
2024-02-24T14:39:10.838Z,99371.41
2024-02-24T14:42:13.764Z,99363.59
2024-02-24T14:45:16.220Z,99366.31
2024-02-24T14:48:18.976Z,99371.47
2024-02-24T14:51:21.641Z,99373.44
2024-02-24T14:54:24.814Z,99370.72
2024-02-24T14:57:27.265Z,99370.44
2024-02-24T15:00:29.965Z,99377.25
2024-02-24T15:03:37.777Z,99388.84
2024-02-24T15:06:45.533Z,99391.09
2024-02-24T15:09:50.103Z,99395.12
2024-02-24T15:12:52.895Z,99389.84
2024-02-24T15:15:55.288Z,99392.03
2024-02-24T15:18:58.126Z,99388.94
2024-02-24T15:22:00.658Z,99390.66
2024-02-24T15:25:03.677Z,99393.16
2024-02-24T15:28:06.759Z,99390.72
2024-02-24T15:31:09.640Z,99388.47
2024-02-24T15:34:12.109Z,99393.69
2024-02-24T15:37:14.736Z,99399.81
2024-02-24T15:40:17.973Z,99400.19
2024-02-24T15:43:22.066Z,99399.97
2024-02-24T15:46:27.659Z,99404.75
2024-02-24T15:49:30.823Z,99409.03
2024-02-24T15:52:33.216Z,99417.06
2024-02-24T15:55:35.891Z,99421.28
2024-02-24T15:58:38.584Z,99423.25
2024-02-24T16:01:41.817Z,99423.00
2024-02-24T16:04:45.529Z,99431.94
2024-02-24T16:07:47.930Z,99436.81
2024-02-24T16:10:52.356Z,99438.25
2024-02-24T16:13:56.583Z,99444.66
2024-02-24T16:17:02.291Z,99450.81
2024-02-24T16:20:05.116Z,99454.16
2024-02-24T16:23:08.488Z,99451.28
2024-02-24T16:26:14.973Z,99446.81
2024-02-24T16:29:17.683Z,99454.50
2024-02-24T16:32:20.301Z,99461.22
2024-02-24T16:35:23.131Z,99458.56
2024-02-24T16:38:25.576Z,99459.16
2024-02-24T16:41:32.806Z,99471.69
2024-02-24T16:44:35.927Z,99480.91
2024-02-24T16:47:39.692Z,99477.31
2024-02-24T16:50:42.388Z,99495.12
2024-02-24T16:53:45.420Z,99493.31
2024-02-24T16:56:48.223Z,99494.59
2024-02-24T16:59:52.152Z,99489.28
2024-02-24T17:02:56.605Z,99491.53
2024-02-24T17:05:59.820Z,99495.00
2024-02-24T17:09:03.967Z,99488.47
2024-02-24T17:12:07.423Z,99491.78
2024-02-24T17:15:11.683Z,99499.88
2024-02-24T17:18:18.668Z,99494.19
2024-02-24T17:21:28.674Z,99483.47
2024-02-24T17:27:35.976Z,99509.38
2024-02-24T17:30:38.603Z,99513.13
2024-02-24T17:33:44.200Z,99518.53
2024-02-24T17:36:49.851Z,99526.88
2024-02-24T17:39:54.283Z,99524.09
2024-02-24T17:42:57.766Z,99531.50
2024-02-24T17:46:00.744Z,99531.91
2024-02-24T17:52:09.081Z,99525.38
2024-02-24T17:55:13.325Z,99525.81
2024-02-24T17:58:16.267Z,99524.12
2024-02-24T18:01:22.026Z,99527.31
2024-02-24T18:04:24.814Z,99533.84
2024-02-24T18:07:28.078Z,99537.19
2024-02-24T18:10:31.083Z,99536.09
2024-02-24T18:13:33.533Z,99542.50
2024-02-24T18:16:36.272Z,99540.53
2024-02-24T18:19:38.793Z,99539.69
2024-02-24T18:22:44.869Z,99544.00
2024-02-24T18:25:47.868Z,99534.94
2024-02-24T18:28:50.675Z,99535.78
2024-02-24T18:31:53.244Z,99536.63
2024-02-24T18:34:56.967Z,99536.50
2024-02-24T18:38:00.928Z,99548.94
2024-02-24T18:41:03.949Z,99549.38
2024-02-24T18:44:06.634Z,99548.47
2024-02-24T18:47:10.871Z,99541.81
2024-02-24T18:50:13.639Z,99543.63
2024-02-24T18:53:16.665Z,99543.34
2024-02-24T18:56:19.454Z,99543.87
2024-02-24T18:59:22.704Z,99549.25
2024-02-24T19:02:25.745Z,99550.81
2024-02-24T19:05:31.882Z,99551.50
2024-02-24T19:08:34.744Z,99556.31
2024-02-24T19:11:37.607Z,99558.25
2024-02-24T19:14:48.767Z,99566.56
2024-02-24T19:17:57.533Z,99562.84
2024-02-24T19:21:00.189Z,99570.84
2024-02-24T19:24:03.074Z,99564.84
2024-02-24T19:27:05.928Z,99568.03
2024-02-24T19:30:09.867Z,99565.66
2024-02-24T19:33:12.439Z,99576.47
2024-02-24T19:36:15.178Z,99566.31
2024-02-24T19:39:19.406Z,99563.81
2024-02-24T19:42:22.440Z,99556.59
2024-02-24T19:45:24.983Z,99558.06
2024-02-24T19:48:27.653Z,99566.50
2024-02-24T19:51:30.496Z,99569.47
2024-02-24T19:54:33.169Z,99562.66
2024-02-24T19:57:36.174Z,99566.78
2024-02-24T20:00:39.446Z,99569.66
2024-02-24T20:03:41.926Z,99570.06
2024-02-24T20:06:44.561Z,99568.06
2024-02-24T20:09:47.018Z,99568.50
2024-02-24T20:12:49.321Z,99562.53
2024-02-24T20:15:51.907Z,99563.03
2024-02-24T20:18:54.394Z,99557.34
2024-02-24T20:21:57.113Z,99559.50
2024-02-24T20:24:59.643Z,99554.09
2024-02-24T20:28:04.730Z,99559.50
2024-02-24T20:31:07.103Z,99560.34
2024-02-24T20:34:09.946Z,99565.53
2024-02-24T20:37:12.476Z,99569.28
2024-02-24T20:40:15.161Z,99571.84
2024-02-24T20:43:17.368Z,99576.41
2024-02-24T20:46:22.602Z,99573.00
2024-02-24T20:49:25.968Z,99562.28
2024-02-24T20:52:29.909Z,99572.25
2024-02-24T20:55:32.659Z,99576.88
2024-02-24T20:58:37.311Z,99569.00
2024-02-24T21:01:39.932Z,99564.72
2024-02-24T21:04:42.874Z,99571.44
2024-02-24T21:07:45.536Z,99580.66
2024-02-24T21:10:47.886Z,99589.25
2024-02-24T21:13:50.191Z,99584.38
2024-02-24T21:16:52.534Z,99579.94
2024-02-24T21:19:55.070Z,99593.81
2024-02-24T21:22:57.475Z,99609.03
2024-02-24T21:25:59.652Z,99608.19
2024-02-24T21:29:02.445Z,99608.78
2024-02-24T21:32:05.181Z,99601.97
2024-02-24T21:35:07.943Z,99606.03
2024-02-24T21:38:10.295Z,99618.97
2024-02-24T21:41:19.497Z,99623.28
2024-02-24T21:44:21.986Z,99622.69
2024-02-24T21:47:24.447Z,99629.75
2024-02-24T21:50:26.724Z,99635.03
2024-02-24T21:53:30.483Z,99626.66
2024-02-24T21:56:35.115Z,99620.41
2024-02-24T21:59:37.774Z,99625.25
2024-02-24T22:02:40.184Z,99616.72
2024-02-24T22:05:43.023Z,99606.69
2024-02-24T22:08:45.369Z,99604.06
2024-02-24T22:11:48.199Z,99603.19
2024-02-24T22:14:50.709Z,99602.84
2024-02-24T22:17:53.437Z,99605.97
2024-02-24T22:20:56.512Z,99603.47
2024-02-24T22:23:59.427Z,99608.88
2024-02-24T22:27:02.043Z,99609.09
2024-02-24T22:30:13.215Z,99616.88
2024-02-24T22:33:18.998Z,99615.22
2024-02-24T22:36:24.052Z,99617.12
2024-02-24T22:39:27.183Z,99611.25
2024-02-24T22:42:30.621Z,99612.09
2024-02-24T22:45:32.925Z,99611.03
2024-02-24T22:48:35.768Z,99616.78
2024-02-24T22:51:38.237Z,99606.81
2024-02-24T22:54:40.744Z,99604.56
2024-02-24T22:57:43.242Z,99600.72
2024-02-24T23:00:48.898Z,99600.25
2024-02-24T23:03:51.270Z,99599.78
2024-02-24T23:06:54.233Z,99598.13
2024-02-24T23:09:56.662Z,99600.25
2024-02-24T23:12:59.304Z,99604.09
2024-02-24T23:16:01.701Z,99597.16
2024-02-24T23:19:04.668Z,99596.31
2024-02-24T23:22:07.709Z,99596.06
2024-02-24T23:25:10.417Z,99592.50
2024-02-24T23:28:15.238Z,99595.47
2024-02-24T23:31:17.795Z,99605.41
2024-02-24T23:34:20.271Z,99598.81
2024-02-24T23:37:23.410Z,99597.63
2024-02-24T23:40:25.706Z,99596.19
2024-02-24T23:43:28.390Z,99600.25
2024-02-24T23:46:30.817Z,99603.47
2024-02-24T23:49:33.633Z,99616.22
2024-02-24T23:52:35.957Z,99607.16
2024-02-24T23:55:38.652Z,99616.22
2024-02-24T23:58:41.043Z,99617.88
